createdAt,value
2022-10-23T00:01:25.109Z,101080.50
2022-10-23T00:03:51.484Z,101075.34
2022-10-23T00:06:17.979Z,101085.31
2022-10-23T00:08:44.394Z,101085.53
2022-10-23T00:11:11.256Z,101087.44
2022-10-23T00:13:37.589Z,101086.59
2022-10-23T00:16:04.002Z,101088.72
2022-10-23T00:18:30.288Z,101091.44
2022-10-23T00:20:56.609Z,101082.50
2022-10-23T00:23:23.266Z,101080.88
2022-10-23T00:25:49.603Z,101084.59
2022-10-23T00:28:16.381Z,101094.84
2022-10-23T00:30:42.758Z,101093.75
2022-10-23T00:33:09.191Z,101093.19
2022-10-23T00:35:35.465Z,101090.50
2022-10-23T00:38:02.115Z,101098.00
2022-10-23T00:40:28.455Z,101098.84
2022-10-23T00:42:54.969Z,101089.91
2022-10-23T00:45:21.326Z,101095.31
2022-10-23T00:47:47.579Z,101099.28
2022-10-23T00:50:13.904Z,101102.00
2022-10-23T00:52:40.483Z,101110.94
2022-10-23T00:55:07.043Z,101106.59
2022-10-23T00:57:33.347Z,101113.88
2022-10-23T00:59:59.821Z,101109.75
2022-10-23T01:02:26.183Z,101110.31
2022-10-23T01:04:52.914Z,101111.63
2022-10-23T01:07:19.456Z,101110.81
2022-10-23T01:09:46.447Z,101115.38
2022-10-23T01:12:12.710Z,101112.91
2022-10-23T01:14:39.166Z,101119.38
2022-10-23T01:17:05.465Z,101122.91
2022-10-23T01:19:31.940Z,101108.59
2022-10-23T01:21:58.241Z,101112.34
2022-10-23T01:24:24.965Z,101117.75
2022-10-23T01:26:51.231Z,101110.69
2022-10-23T01:29:17.697Z,101106.34
2022-10-23T01:31:44.109Z,101100.16
2022-10-23T01:34:10.430Z,101105.78
2022-10-23T01:36:36.806Z,101096.06
2022-10-23T01:41:30.305Z,101104.16
2022-10-23T01:43:56.552Z,101100.63
2022-10-23T01:46:22.804Z,101098.97
2022-10-23T01:48:49.165Z,101097.31
2022-10-23T01:51:15.427Z,101097.31
2022-10-23T01:53:41.960Z,101096.50
2022-10-23T01:56:08.281Z,101109.19
2022-10-23T01:58:34.557Z,101107.53
2022-10-23T02:01:01.023Z,101113.78
2022-10-23T02:03:27.389Z,101120.19
2022-10-23T02:05:53.754Z,101116.69
2022-10-23T02:08:20.096Z,101120.69
2022-10-23T02:10:46.405Z,101122.56
2022-10-23T02:13:12.768Z,101119.88
2022-10-23T02:15:39.055Z,101120.09
2022-10-23T02:18:05.408Z,101122.78
2022-10-23T02:20:31.712Z,101126.56
2022-10-23T02:22:58.071Z,101123.25
2022-10-23T02:25:24.329Z,101124.91
2022-10-23T02:27:50.716Z,101124.31
2022-10-23T02:30:16.969Z,101124.31
2022-10-23T02:32:43.615Z,101121.63
2022-10-23T02:35:10.064Z,101123.75
2022-10-23T02:37:36.756Z,101118.13
2022-10-23T02:40:03.018Z,101118.34
2022-10-23T02:42:29.565Z,101115.03
2022-10-23T02:44:55.845Z,101116.09
2022-10-23T02:47:22.405Z,101114.47
2022-10-23T02:49:48.786Z,101116.34
2022-10-23T02:52:15.206Z,101114.69
2022-10-23T02:54:41.523Z,101121.97
2022-10-23T02:57:07.904Z,101117.63
2022-10-23T02:59:34.123Z,101112.22
2022-10-23T03:02:00.452Z,101108.97
2022-10-23T03:04:27.201Z,101112.47
2022-10-23T03:06:54.035Z,101113.53
2022-10-23T03:09:20.641Z,101113.53
2022-10-23T03:11:47.303Z,101117.28
2022-10-23T03:14:14.049Z,101117.50
2022-10-23T03:16:40.600Z,101116.44
2022-10-23T03:19:06.896Z,101113.19
2022-10-23T03:21:33.193Z,101110.47
2022-10-23T03:23:59.705Z,101112.94
2022-10-23T03:26:26.556Z,101108.81
2022-10-23T03:28:52.929Z,101112.34
2022-10-23T03:31:19.282Z,101123.13
2022-10-23T03:33:45.547Z,101116.91
2022-10-23T03:36:11.873Z,101113.63
2022-10-23T03:38:38.237Z,101119.03
2022-10-23T03:41:04.611Z,101124.44
2022-10-23T03:43:30.913Z,101124.44
2022-10-23T03:45:57.152Z,101122.78
2022-10-23T03:48:23.767Z,101128.19
2022-10-23T03:50:50.139Z,101119.47
2022-10-23T03:53:16.532Z,101124.84
2022-10-23T03:55:42.787Z,101130.25
2022-10-23T03:58:09.253Z,101122.16
2022-10-23T04:00:35.699Z,101124.06
2022-10-23T04:03:02.013Z,101131.09
2022-10-23T04:05:28.439Z,101130.25
2022-10-23T04:07:54.705Z,101136.72
2022-10-23T04:10:21.051Z,101140.47
2022-10-23T04:12:47.450Z,101133.44
2022-10-23T04:15:13.744Z,101131.53
2022-10-23T04:17:40.080Z,101128.84
2022-10-23T04:20:06.402Z,101123.69
2022-10-23T04:22:32.808Z,101127.22
2022-10-23T04:24:59.209Z,101134.25
2022-10-23T04:27:25.546Z,101126.38
2022-10-23T04:29:54.329Z,101129.91
2022-10-23T04:32:23.197Z,101123.91
2022-10-23T04:34:49.535Z,101119.56
2022-10-23T04:37:16.018Z,101117.72
2022-10-23T04:39:42.356Z,101109.63
2022-10-23T04:42:08.646Z,101119.81
2022-10-23T04:44:35.372Z,101120.63
2022-10-23T04:47:03.363Z,101125.19
2022-10-23T04:49:29.723Z,101120.63
2022-10-23T04:51:56.089Z,101124.16
2022-10-23T04:54:22.337Z,101116.31
2022-10-23T04:56:48.623Z,101122.75
2022-10-23T04:59:14.882Z,101123.78
2022-10-23T05:01:41.173Z,101127.31
2022-10-23T05:04:07.626Z,101124.63
2022-10-23T05:06:34.105Z,101131.88
2022-10-23T05:09:00.384Z,101126.25
2022-10-23T05:11:26.909Z,101124.84
2022-10-23T05:13:53.197Z,101127.53
2022-10-23T05:16:19.508Z,101127.53
2022-10-23T05:18:45.765Z,101127.78
2022-10-23T05:21:12.104Z,101128.59
2022-10-23T05:23:38.449Z,101121.56
2022-10-23T05:26:04.778Z,101116.97
2022-10-23T05:28:31.123Z,101119.91
2022-10-23T05:30:57.365Z,101113.47
2022-10-23T05:33:23.837Z,101120.97
2022-10-23T05:35:50.138Z,101115.56
2022-10-23T05:38:16.413Z,101112.03
2022-10-23T05:40:42.738Z,101113.94
2022-10-23T05:43:09.350Z,101115.81
2022-10-23T05:45:35.768Z,101110.41
2022-10-23T05:48:16.885Z,101111.47
2022-10-23T05:50:48.386Z,101119.34
2022-10-23T05:53:14.653Z,101116.88
2022-10-23T05:55:40.989Z,101122.03
2022-10-23T05:58:07.395Z,101125.53
2022-10-23T06:00:33.692Z,101121.31
2022-10-23T06:03:00.113Z,101137.03
2022-10-23T06:05:26.634Z,101131.88
2022-10-23T06:07:53.430Z,101128.38
2022-10-23T06:10:20.016Z,101137.88
2022-10-23T06:12:46.343Z,101144.06
2022-10-23T06:15:12.753Z,101139.28
2022-10-23T06:17:39.262Z,101136.59
2022-10-23T06:20:05.549Z,101133.66
2022-10-23T06:22:32.152Z,101132.00
2022-10-23T06:24:58.368Z,101139.88
2022-10-23T06:27:24.686Z,101139.06
2022-10-23T06:29:51.042Z,101139.88
2022-10-23T06:32:17.930Z,101147.16
2022-10-23T06:34:44.748Z,101143.41
2022-10-23T06:37:11.106Z,101144.47
2022-10-23T06:39:37.519Z,101156.06
2022-10-23T06:42:03.831Z,101156.06
2022-10-23T06:44:30.152Z,101151.50
2022-10-23T06:46:56.594Z,101142.56
2022-10-23T06:49:23.181Z,101150.44
2022-10-23T06:51:49.705Z,101148.56
2022-10-23T06:54:15.956Z,101148.78
2022-10-23T06:56:42.260Z,101156.06
2022-10-23T06:59:08.546Z,101151.25
2022-10-23T07:01:34.992Z,101145.03
2022-10-23T07:04:01.473Z,101147.72
2022-10-23T07:06:27.736Z,101147.16
2022-10-23T07:08:55.125Z,101148.19
2022-10-23T07:11:21.451Z,101146.94
2022-10-23T07:13:47.821Z,101146.94
2022-10-23T07:16:14.272Z,101146.66
2022-10-23T07:18:40.569Z,101146.44
2022-10-23T07:21:07.213Z,101146.44
2022-10-23T07:23:33.463Z,101142.69
2022-10-23T07:25:59.813Z,101145.19
2022-10-23T07:28:26.134Z,101147.06
2022-10-23T07:30:52.494Z,101150.56
2022-10-23T07:33:18.817Z,101144.16
2022-10-23T07:35:45.116Z,101139.78
2022-10-23T07:38:11.591Z,101145.19
2022-10-23T07:40:37.903Z,101147.88
2022-10-23T07:43:04.376Z,101154.09
2022-10-23T07:45:30.784Z,101150.78
2022-10-23T07:47:57.097Z,101148.06
2022-10-23T07:50:23.446Z,101142.25
2022-10-23T07:52:49.817Z,101139.56
2022-10-23T07:55:16.017Z,101136.84
2022-10-23T07:57:42.532Z,101138.75
2022-10-23T08:00:08.763Z,101136.84
2022-10-23T08:02:35.067Z,101145.56
2022-10-23T08:05:01.441Z,101133.94
2022-10-23T08:07:27.917Z,101142.84
2022-10-23T08:09:54.213Z,101147.19
2022-10-23T08:12:20.501Z,101148.03
2022-10-23T08:14:46.807Z,101146.59
2022-10-23T08:17:13.129Z,101146.59
2022-10-23T08:19:39.819Z,101145.78
2022-10-23T08:22:06.072Z,101147.19
2022-10-23T08:24:32.369Z,101155.50
2022-10-23T08:26:58.876Z,101150.94
2022-10-23T08:29:25.152Z,101160.06
2022-10-23T08:31:51.605Z,101160.06
2022-10-23T08:34:17.811Z,101151.75
2022-10-23T08:36:44.193Z,101148.47
2022-10-23T08:39:10.467Z,101155.50
2022-10-23T08:41:36.824Z,101153.41
2022-10-23T08:44:03.197Z,101156.13
2022-10-23T08:46:29.773Z,101157.75
2022-10-23T08:48:56.226Z,101147.75
2022-10-23T08:51:22.617Z,101148.38
2022-10-23T08:53:48.970Z,101149.56
2022-10-23T08:56:15.194Z,101143.91
2022-10-23T08:58:41.602Z,101146.63
2022-10-23T09:01:08.056Z,101138.03
2022-10-23T09:03:34.471Z,101138.75
2022-10-23T09:06:00.729Z,101136.50
2022-10-23T09:08:27.329Z,101134.16
2022-10-23T09:10:53.856Z,101140.38
2022-10-23T09:13:20.162Z,101137.69
2022-10-23T09:15:46.899Z,101132.28
2022-10-23T09:18:13.424Z,101129.59
2022-10-23T09:20:40.097Z,101128.75
2022-10-23T09:23:06.429Z,101130.19
2022-10-23T09:25:32.681Z,101132.91
2022-10-23T09:28:01.348Z,101132.91
2022-10-23T09:30:30.819Z,101139.94
2022-10-23T09:32:57.203Z,101136.41
2022-10-23T09:35:23.544Z,101139.09
2022-10-23T09:37:49.813Z,101133.94
2022-10-23T09:40:16.183Z,101133.94
2022-10-23T09:42:42.553Z,101138.31
2022-10-23T09:45:08.863Z,101128.53
2022-10-23T09:47:35.413Z,101132.06
2022-10-23T09:50:01.685Z,101129.13
2022-10-23T09:52:28.000Z,101125.59
2022-10-23T09:54:54.562Z,101127.00
2022-10-23T09:57:20.975Z,101123.25
2022-10-23T10:02:21.085Z,101113.28
2022-10-23T10:04:47.576Z,101116.81
2022-10-23T10:07:13.842Z,101107.06
2022-10-23T10:09:40.391Z,101110.59
2022-10-23T10:12:06.780Z,101106.03
2022-10-23T10:14:33.206Z,101105.19
2022-10-23T10:16:59.474Z,101102.72
2022-10-23T10:19:25.840Z,101090.88
2022-10-23T10:21:52.372Z,101095.00
2022-10-23T10:24:18.889Z,101094.75
2022-10-23T10:26:45.575Z,101085.00
2022-10-23T10:29:11.925Z,101081.25
2022-10-23T10:31:38.227Z,101081.25
2022-10-23T10:34:04.522Z,101079.59
2022-10-23T10:36:31.030Z,101080.66
2022-10-23T10:38:57.325Z,101079.84
2022-10-23T10:41:23.665Z,101064.72
2022-10-23T10:43:49.981Z,101060.16
2022-10-23T10:48:47.778Z,101069.88
2022-10-23T10:51:14.021Z,101075.28
2022-10-23T10:53:40.402Z,101071.50
2022-10-23T10:56:06.923Z,101064.25
2022-10-23T10:58:33.292Z,101060.50
2022-10-23T11:00:59.850Z,101062.34
2022-10-23T11:03:26.163Z,101070.44
2022-10-23T11:05:52.865Z,101064.03
2022-10-23T11:08:19.245Z,101062.34
2022-10-23T11:10:45.647Z,101063.19
2022-10-23T11:13:12.079Z,101050.53
2022-10-23T11:18:18.073Z,101045.13
2022-10-23T11:20:44.508Z,101048.38
2022-10-23T11:23:10.840Z,101047.31
2022-10-23T11:25:37.088Z,101031.38
2022-10-23T11:28:05.239Z,101027.63
2022-10-23T11:30:34.290Z,101023.28
2022-10-23T11:33:00.724Z,101015.91
2022-10-23T11:35:27.558Z,101016.47
2022-10-23T11:37:53.874Z,101020.22
2022-10-23T11:40:20.237Z,101014.63
2022-10-23T11:42:46.803Z,101013.09
2022-10-23T11:45:13.480Z,101004.19
2022-10-23T11:47:40.653Z,100993.38
2022-10-23T11:50:07.385Z,100986.16
2022-10-23T11:52:36.161Z,100982.16
2022-10-23T11:55:05.073Z,100977.31
2022-10-23T12:00:02.569Z,100971.81
2022-10-23T12:02:29.214Z,100960.81
2022-10-23T12:04:55.737Z,100957.59
2022-10-23T12:07:22.088Z,100962.53
2022-10-23T12:09:48.380Z,100955.03
2022-10-23T12:12:14.901Z,100948.47
2022-10-23T12:14:41.258Z,100956.06
2022-10-23T12:17:07.836Z,100958.53
2022-10-23T12:19:34.060Z,100948.09
2022-10-23T12:22:00.324Z,100947.59
2022-10-23T12:24:26.577Z,100956.06
2022-10-23T12:26:53.004Z,100959.94
2022-10-23T12:29:19.321Z,100951.56
2022-10-23T12:31:47.928Z,100949.47
2022-10-23T12:34:14.670Z,100946.03
2022-10-23T12:36:41.017Z,100950.16
2022-10-23T12:39:07.322Z,100944.47
2022-10-23T12:41:33.867Z,100936.66
2022-10-23T12:44:00.260Z,100937.22
2022-10-23T12:46:26.677Z,100934.28
2022-10-23T12:48:52.907Z,100941.31
2022-10-23T12:51:19.338Z,100939.69
2022-10-23T12:53:45.623Z,100937.53
2022-10-23T12:56:11.920Z,100931.34
2022-10-23T12:58:38.165Z,100935.13
2022-10-23T13:01:04.577Z,100935.13
2022-10-23T13:03:31.038Z,100922.41
2022-10-23T13:05:57.413Z,100920.56
2022-10-23T13:08:23.720Z,100920.56
2022-10-23T13:10:49.969Z,100907.63
2022-10-23T13:13:16.389Z,100912.22
2022-10-23T13:15:42.682Z,100898.72
2022-10-23T13:18:08.983Z,100896.81
2022-10-23T13:20:35.405Z,100903.03
2022-10-23T13:23:01.744Z,100894.94
2022-10-23T13:25:29.295Z,100891.41
2022-10-23T13:27:55.676Z,100889.53
2022-10-23T13:30:22.016Z,100888.47
2022-10-23T13:32:48.531Z,100888.47
2022-10-23T13:35:21.848Z,100885.78
2022-10-23T13:37:48.412Z,100878.50
2022-10-23T13:40:14.734Z,100873.91
2022-10-23T13:42:41.493Z,100877.59
2022-10-23T13:45:08.004Z,100875.28
2022-10-23T13:47:34.236Z,100880.22
2022-10-23T13:50:00.477Z,100881.50
2022-10-23T13:52:26.728Z,100876.34
2022-10-23T13:54:53.240Z,100876.34
2022-10-23T13:57:19.568Z,100880.13
2022-10-23T13:59:46.281Z,100880.44
2022-10-23T14:02:12.739Z,100878.53
2022-10-23T14:04:39.202Z,100877.50
2022-10-23T14:07:05.509Z,100868.34
2022-10-23T14:09:31.769Z,100869.97
2022-10-23T14:11:58.077Z,100865.41
2022-10-23T14:14:24.384Z,100864.34
2022-10-23T14:16:50.636Z,100866.19
2022-10-23T14:19:18.253Z,100865.41
2022-10-23T14:21:44.554Z,100867.28
2022-10-23T14:24:10.921Z,100863.50
2022-10-23T14:26:37.313Z,100864.56
2022-10-23T14:29:07.626Z,100864.34
2022-10-23T14:31:36.500Z,100864.56
2022-10-23T14:34:02.982Z,100861.06
2022-10-23T14:36:38.421Z,100856.72
2022-10-23T14:39:15.581Z,100862.09
2022-10-23T14:41:42.094Z,100854.84
2022-10-23T14:44:08.443Z,100848.59
2022-10-23T14:46:34.680Z,100845.13
2022-10-23T14:49:02.467Z,100852.13
2022-10-23T14:51:29.029Z,100850.50
2022-10-23T14:53:58.706Z,100851.56
2022-10-23T14:56:25.577Z,100850.69
2022-10-23T14:58:51.894Z,100838.06
2022-10-23T15:01:18.521Z,100839.94
2022-10-23T15:03:45.063Z,100831.03
2022-10-23T15:06:15.998Z,100831.03
2022-10-23T15:08:44.592Z,100830.22
2022-10-23T15:11:12.622Z,100827.75
2022-10-23T15:13:39.139Z,100826.94
2022-10-23T15:16:05.589Z,100823.44
2022-10-23T15:18:31.918Z,100819.91
2022-10-23T15:20:58.322Z,100818.28
2022-10-23T15:23:24.693Z,100822.00
2022-10-23T15:25:51.111Z,100812.03
2022-10-23T15:28:17.462Z,100811.47
2022-10-23T15:30:43.820Z,100802.31
2022-10-23T15:33:10.368Z,100794.22
2022-10-23T15:35:36.644Z,100792.59
2022-10-23T15:38:02.980Z,100798.00
2022-10-23T15:40:29.375Z,100799.03
2022-10-23T15:42:56.415Z,100792.84
2022-10-23T15:45:25.564Z,100788.47
2022-10-23T15:47:57.630Z,100785.78
2022-10-23T15:50:24.593Z,100783.34
2022-10-23T15:52:51.496Z,100787.91
2022-10-23T15:55:18.606Z,100783.59
2022-10-23T15:57:45.540Z,100774.66
2022-10-23T16:00:14.791Z,100787.09
2022-10-23T16:02:43.380Z,100786.53
2022-10-23T16:05:11.438Z,100790.28
2022-10-23T16:07:39.235Z,100787.59
2022-10-23T16:10:06.665Z,100787.00
2022-10-23T16:12:33.645Z,100787.81
2022-10-23T16:15:01.246Z,100781.59
2022-10-23T16:17:28.093Z,100782.66
2022-10-23T16:19:55.263Z,100781.59
2022-10-23T16:22:22.224Z,100772.13
2022-10-23T16:24:49.559Z,100776.44
2022-10-23T16:27:16.663Z,100762.94
2022-10-23T16:29:43.992Z,100766.72
2022-10-23T16:32:11.288Z,100765.91
2022-10-23T16:34:41.708Z,100766.16
2022-10-23T16:37:09.199Z,100755.13
2022-10-23T16:39:36.439Z,100757.81
2022-10-23T16:42:03.519Z,100760.53
2022-10-23T16:44:30.755Z,100770.47
2022-10-23T16:46:57.820Z,100769.41
2022-10-23T16:49:24.823Z,100762.16
2022-10-23T16:51:51.930Z,100750.75
2022-10-23T16:54:19.992Z,100755.38
2022-10-23T16:56:49.098Z,100763.22
2022-10-23T16:59:16.220Z,100757.00
2022-10-23T17:01:43.760Z,100753.47
2022-10-23T17:04:11.175Z,100742.66
2022-10-23T17:06:40.089Z,100737.28
2022-10-23T17:09:07.484Z,100730.25
2022-10-23T17:11:37.144Z,100733.78
2022-10-23T17:14:04.710Z,100732.94
2022-10-23T17:16:32.267Z,100730.50
2022-10-23T17:18:59.472Z,100735.66
2022-10-23T17:21:26.490Z,100735.66
2022-10-23T17:23:53.929Z,100732.13
2022-10-23T17:26:21.091Z,100729.41
2022-10-23T17:28:48.366Z,100717.81
2022-10-23T17:31:15.401Z,100721.59
2022-10-23T17:33:42.694Z,100708.09
2022-10-23T17:36:09.912Z,100710.81
2022-10-23T17:38:36.390Z,100707.03
2022-10-23T17:41:03.432Z,100700.81
2022-10-23T17:43:30.966Z,100710.81
2022-10-23T17:46:00.550Z,100703.75
2022-10-23T17:48:27.737Z,100694.63
2022-10-23T17:50:54.802Z,100691.09
2022-10-23T17:53:21.953Z,100684.88
2022-10-23T17:55:49.206Z,100685.94
2022-10-23T17:58:16.156Z,100676.75
2022-10-23T18:00:44.143Z,100669.75
2022-10-23T18:03:11.226Z,100671.59
2022-10-23T18:08:06.509Z,100659.19
2022-10-23T18:10:33.671Z,100656.50
2022-10-23T18:13:00.790Z,100648.63
2022-10-23T18:15:28.096Z,100647.00
2022-10-23T18:17:55.007Z,100647.84
2022-10-23T18:20:22.037Z,100647.00
2022-10-23T18:22:49.166Z,100647.84
2022-10-23T18:25:16.332Z,100641.84
2022-10-23T18:27:45.269Z,100647.00
2022-10-23T18:30:13.591Z,100647.00
2022-10-23T18:32:40.890Z,100649.72
2022-10-23T18:35:08.845Z,100647.00
2022-10-23T18:37:41.213Z,100652.41
2022-10-23T18:40:09.599Z,100660.50
2022-10-23T18:42:36.823Z,100661.56
2022-10-23T18:45:04.209Z,100662.41
2022-10-23T18:47:31.306Z,100659.13
2022-10-23T18:49:58.480Z,100646.47
2022-10-23T18:52:25.508Z,100637.78
2022-10-23T18:54:52.741Z,100631.31
2022-10-23T18:57:20.227Z,100619.72
2022-10-23T18:59:47.906Z,100617.81
2022-10-23T19:02:15.102Z,100623.50
2022-10-23T19:04:43.347Z,100638.38
2022-10-23T19:07:10.570Z,100639.66
2022-10-23T19:09:37.596Z,100627.22
2022-10-23T19:12:04.358Z,100630.13
2022-10-23T19:14:32.599Z,100622.03
2022-10-23T19:17:02.697Z,100632.81
2022-10-23T19:19:30.865Z,100618.34
2022-10-23T19:21:58.046Z,100610.25
2022-10-23T19:24:26.266Z,100612.31
2022-10-23T19:26:53.122Z,100620.66
2022-10-23T19:29:21.352Z,100615.00
2022-10-23T19:31:48.365Z,100613.38
2022-10-23T19:34:15.365Z,100615.25
2022-10-23T19:36:42.453Z,100609.06
2022-10-23T19:39:09.489Z,100602.84
2022-10-23T19:41:36.340Z,100607.44
2022-10-23T19:44:03.436Z,100602.03
2022-10-23T19:46:30.322Z,100603.66
2022-10-23T19:48:57.715Z,100592.28
2022-10-23T19:51:24.250Z,100585.84
2022-10-23T19:56:21.931Z,100561.81
2022-10-23T19:58:48.338Z,100546.69
2022-10-23T20:01:14.791Z,100536.97
2022-10-23T20:03:41.227Z,100545.88
2022-10-23T20:06:07.526Z,100568.25
2022-10-23T20:08:35.108Z,100566.63
2022-10-23T20:11:01.635Z,100571.78
2022-10-23T20:13:27.889Z,100575.56
2022-10-23T20:15:54.224Z,100567.72
2022-10-23T20:18:20.597Z,100573.94
2022-10-23T20:20:46.849Z,100569.34
2022-10-23T20:23:13.192Z,100572.28
2022-10-23T20:25:39.451Z,100570.41
2022-10-23T20:28:07.486Z,100567.72
2022-10-23T20:30:35.457Z,100571.47
2022-10-23T20:33:01.760Z,100561.75
2022-10-23T20:35:27.985Z,100560.69
2022-10-23T20:37:54.538Z,100552.84
2022-10-23T20:40:20.837Z,100554.47
2022-10-23T20:42:47.204Z,100555.53
2022-10-23T20:45:14.382Z,100560.94
2022-10-23T20:47:40.634Z,100552.84
2022-10-23T20:50:06.993Z,100547.44
2022-10-23T20:52:33.895Z,100550.97
2022-10-23T20:55:00.203Z,100545.81
2022-10-23T20:57:26.781Z,100539.59
2022-10-23T20:59:53.044Z,100542.28
2022-10-23T21:02:19.392Z,100539.59
2022-10-23T21:04:45.722Z,100535.03
2022-10-23T21:07:11.999Z,100536.91
2022-10-23T21:09:38.397Z,100539.59
2022-10-23T21:12:04.749Z,100544.16
2022-10-23T21:14:31.209Z,100527.97
2022-10-23T21:16:57.475Z,100530.66
2022-10-23T21:19:23.749Z,100531.75
2022-10-23T21:21:50.167Z,100530.66
2022-10-23T21:24:16.637Z,100529.28
2022-10-23T21:26:43.305Z,100528.25
2022-10-23T21:29:24.504Z,100530.13
2022-10-23T21:31:50.814Z,100525.78
2022-10-23T21:34:17.053Z,100530.94
2022-10-23T21:36:54.131Z,100523.09
2022-10-23T21:39:29.689Z,100525.78
2022-10-23T21:41:55.942Z,100523.09
2022-10-23T21:44:22.345Z,100533.88
2022-10-23T21:46:48.657Z,100534.94
2022-10-23T21:49:14.915Z,100541.38
2022-10-23T21:51:41.251Z,100544.66
2022-10-23T21:54:07.652Z,100558.41
2022-10-23T21:56:34.031Z,100569.19
2022-10-23T21:59:00.396Z,100569.97
2022-10-23T22:01:26.781Z,100571.06
2022-10-23T22:03:53.225Z,100587.22
2022-10-23T22:06:19.658Z,100592.63
2022-10-23T22:08:45.974Z,100596.16
2022-10-23T22:11:12.244Z,100600.94
2022-10-23T22:13:38.637Z,100599.09
2022-10-23T22:16:05.009Z,100601.78
2022-10-23T22:18:31.560Z,100603.41
2022-10-23T22:20:59.324Z,100588.53
2022-10-23T22:23:27.598Z,100587.47
2022-10-23T22:25:53.858Z,100586.66
2022-10-23T22:28:20.169Z,100578.59
2022-10-23T22:30:46.481Z,100574.25
2022-10-23T22:33:12.816Z,100576.13
2022-10-23T22:35:39.098Z,100580.44
2022-10-23T22:38:05.577Z,100584.22
2022-10-23T22:40:31.849Z,100581.53
2022-10-23T22:42:58.229Z,100587.16
2022-10-23T22:45:24.511Z,100587.16
2022-10-23T22:47:50.837Z,100592.53
2022-10-23T22:50:17.085Z,100593.38
2022-10-23T22:52:43.615Z,100594.41
2022-10-23T22:55:10.125Z,100582.84
2022-10-23T22:57:36.517Z,100594.16
2022-10-23T23:00:02.755Z,100592.53
2022-10-23T23:02:29.348Z,100599.00
2022-10-23T23:04:55.601Z,100596.31
2022-10-23T23:07:22.063Z,100604.16
2022-10-23T23:09:48.416Z,100611.66
2022-10-23T23:12:14.719Z,100610.88
2022-10-23T23:14:41.016Z,100615.44
2022-10-23T23:17:07.252Z,100605.47
2022-10-23T23:19:33.544Z,100605.47
2022-10-23T23:21:59.781Z,100601.94
2022-10-23T23:24:26.021Z,100598.41
2022-10-23T23:26:52.342Z,100593.03
2022-10-23T23:29:18.657Z,100584.94
2022-10-23T23:31:45.122Z,100582.25
2022-10-23T23:34:11.481Z,100578.75
2022-10-23T23:36:37.825Z,100570.66
2022-10-23T23:41:35.244Z,100561.75
2022-10-23T23:44:01.552Z,100571.69
2022-10-23T23:46:27.823Z,100570.66
2022-10-23T23:48:54.514Z,100573.59
2022-10-23T23:51:20.881Z,100584.38
2022-10-23T23:53:47.155Z,100579.78
2022-10-23T23:56:13.612Z,100570.91
2022-10-23T23:58:39.968Z,100562.81
